KMMT/MMT METAR and TAF weather

Enter ICAO airport designator
Station Type Date Time Source
KMMT METAR 2021/10/24 19:56 UTC NOAA

KMMT 241956Z AUTO 08004KT 10SM CLR 27/10 A3007 RMK AO2 SLP184 T02670104 $


Station Type Date Time Source
KMMT Decoded METAR 2021/10/24 19:56 UTC NOAA

McEntire Air National Guard Weather Facility Base, SC, United States (KMMT) 33-55N 080-48W
Oct 24, 2021 - 03:56 PM EDT / 2021.10.24 1956 UTC
Wind: from the E (080 degrees) at 5 MPH (4 KT):0
Visibility: 10 mile(s):0
Sky conditions: clear
Temperature: 80.1 F (26.7 C)
Dew Point: 50.7 F (10.4 C)
Relative Humidity: 35%
Pressure (altimeter): 30.07 in. Hg (1018 hPa)
ob: KMMT 241956Z AUTO 08004KT 10SM CLR 27/10 A3007 RMK AO2 SLP184 T02670104
cycle: 20

Station Type Date Time Source
KMMT TAF 2021/10/24 15:09 UTC NOAA

TAF KMMT 241500Z 2415/2521 VRB06KT 9999 SKC QNH3002INS
BECMG 2504/2505 VRB06KT 9000 BR SCT020 QNH3001INS
BECMG 2510/2511 VRB06KT 8000 BR BKN030 QNH2981INS
BECMG 2514/2515 VRB06KT 9999 NSW FEW023 QNH2981INS TX29/2421Z TN12/2508Z

Example: see airport list